Aérodrome :
LOGIN :

S'inscrire | Disclaimer

   EN    FR    IT 

 










Légende :    VFR   VFR Marginal   IFR   IFR Intensif   IFR Très Intensif
Visi : 
Plafond : 
>= 8 km
>= 3000ft
5 à 8 km
1000 à 3000 ft
1500m à 5 km
500 à 1000 ft
800 à 1500m
200 à 500 ft
< 800m
< 200 ft
Symboles :   Orages  Brouillard  Fortes neiges  Fortes précipitations  Vent > 20 kt
SIGMETs :   Divers  Orages  Givrage  Turbulence  Onde Orograph.  Cendres Volcan.






- Altitude de l'aérodrome : 939 ft


LKKB - Kbely Air Base

DERNIER METAR :
  • 131700Z 08005KT 040V120 CAVOK 21/07 Q1021 NOSIG

METARs EXPIRÉS :
  • 131630Z 11006KT 080V140 CAVOK 21/06 Q1021 NOSIG
  • 131600Z VRB02KT CAVOK 22/07 Q1021 NOSIG
  • 131530Z 05007KT 350V090 CAVOK 22/06 Q1021 NOSIG
  • 131500Z 08004KT 360V140 CAVOK 22/05 Q1022 NOSIG
  • 131430Z 06006KT 350V100 CAVOK 21/07 Q1022 NOSIG

TAF TAF LKKB
Valide du 13 à 12h jusqu'au 14 à 12h UTC


131100Z 1312/1412 10006KT CAVOK
BECMG 1319/1321 16006KT
TEMPO 1409/1412 SCT040



MET'MAP, la Météo Aéronautique d'un coup d'oeil ! - Copyright ORBIFLY Décembre 2007 - Disclaimer

ORBIFLY MET'MAP TEAM :

Programmation & Développement : Alexandra Zaïnal
Sur une idée originale de : Baudouin d'Aumeries
Assistance à la programmation : Marc-Olivier Méhu
Soutien technique & logistique : Manuel Goepfert

Contact : metmap@orbifly.com




SOURCES & CREDITS :

   NOAA